VIR12D LIRF-EGLL
Flight info
| Callsign | VIR12D |
|---|---|
| Flight time | N/A |
| Altitude | 40000 |
| Route | NEMBO DCT GOVGO DCT SPEZI DCT OTMUV DCT AOSTA DCT ORSUD DCT MOLUS DCT GILIR DCT PENDU DCT IXILU DCT EPL DCT ROUSY DCT RITAX M624 BUB L608 LOGAN |
| Aircraft | A35K/H-SDE2E3GHIJ3J4J5LM1ORWXY/LB1D1 |
Departure
| Time | 2026-05-06 06:40 |
|---|---|
| Airport | Rome–Fiumicino Leonardo da Vinci International Airport (LIRF) |
Arrival
| Time | N/A |
|---|---|
| Airport | London Heathrow Airport (EGLL) |
| Time | Latitude | Longitude | Altitude | Speed | Heading |
|---|---|---|---|---|---|
| 2026-05-06 06:19 | 41.79652 | 12.24304 | 24 ft | 0 kts | 250° |
| 2026-05-06 06:30 | 41.79658 | 12.24329 | 24 ft | 4 kts | 258° |
| 2026-05-06 06:30 | 41.79661 | 12.24365 | 24 ft | 4 kts | 275° |
| 2026-05-06 06:30 | 41.79656 | 12.24399 | 25 ft | 4 kts | 297° |
| 2026-05-06 06:31 | 41.79640 | 12.24427 | 24 ft | 4 kts | 320° |
| 2026-05-06 06:31 | 41.79618 | 12.24447 | 25 ft | 4 kts | 336° |
| 2026-05-06 06:31 | 41.79592 | 12.24459 | 24 ft | 4 kts | 346° |
| 2026-05-06 06:31 | 41.79568 | 12.24467 | 26 ft | 2 kts | 340° |
| 2026-05-06 06:32 | 41.79567 | 12.24468 | 26 ft | 0 kts | 340° |
| 2026-05-06 06:34 | 41.79600 | 12.24451 | 26 ft | 9 kts | 339° |
| 2026-05-06 06:34 | 41.79644 | 12.24427 | 24 ft | 11 kts | 338° |
| 2026-05-06 06:34 | 41.79731 | 12.24385 | 24 ft | 15 kts | 340° |
| 2026-05-06 06:34 | 41.79815 | 12.24326 | 24 ft | 14 kts | 320° |
| 2026-05-06 06:35 | 41.79891 | 12.24223 | 25 ft | 17 kts | 288° |
| 2026-05-06 06:35 | 41.79909 | 12.24022 | 24 ft | 17 kts | 255° |
| 2026-05-06 06:35 | 41.79881 | 12.23917 | 23 ft | 19 kts | 249° |
| 2026-05-06 06:35 | 41.79831 | 12.23743 | 24 ft | 20 kts | 252° |
| 2026-05-06 06:36 | 41.79887 | 12.23661 | 22 ft | 14 kts | 342° |
| 2026-05-06 06:36 | 41.79992 | 12.23618 | 24 ft | 17 kts | 342° |
| 2026-05-06 06:36 | 41.80112 | 12.23567 | 23 ft | 21 kts | 342° |
| 2026-05-06 06:36 | 41.80262 | 12.23504 | 23 ft | 24 kts | 342° |
| 2026-05-06 06:37 | 41.80432 | 12.23432 | 23 ft | 27 kts | 342° |
| 2026-05-06 06:37 | 41.80622 | 12.23353 | 22 ft | 30 kts | 343° |
| 2026-05-06 06:37 | 41.80827 | 12.23268 | 24 ft | 32 kts | 342° |
| 2026-05-06 06:37 | 41.81050 | 12.23175 | 24 ft | 35 kts | 343° |
| 2026-05-06 06:38 | 41.81284 | 12.23076 | 23 ft | 30 kts | 342° |
| 2026-05-06 06:38 | 41.81462 | 12.23001 | 22 ft | 28 kts | 341° |
| 2026-05-06 06:38 | 41.81558 | 12.22824 | 24 ft | 21 kts | 295° |
| 2026-05-06 06:38 | 41.81530 | 12.22654 | 21 ft | 14 kts | 214° |
| 2026-05-06 06:39 | 41.81471 | 12.22668 | 22 ft | 0 kts | 161° |
| 2026-05-06 06:39 | 41.81470 | 12.22668 | 22 ft | 0 kts | 161° |
| 2026-05-06 06:39 | 41.81287 | 12.22748 | 20 ft | 69 kts | 163° |
| 2026-05-06 06:40 | 41.80575 | 12.23045 | 24 ft | 143 kts | 162° |
| 2026-05-06 06:40 | 41.79458 | 12.23485 | 368 ft | 177 kts | 161° |
| 2026-05-06 06:40 | 41.78280 | 12.23950 | 1407 ft | 174 kts | 162° |
| 2026-05-06 06:40 | 41.77126 | 12.24461 | 2416 ft | 176 kts | 162° |
| 2026-05-06 06:41 | 41.75917 | 12.24863 | 3177 ft | 182 kts | 175° |
| 2026-05-06 06:41 | 41.74664 | 12.24547 | 3764 ft | 194 kts | 205° |
| 2026-05-06 06:41 | 41.73617 | 12.23404 | 4597 ft | 190 kts | 228° |
| 2026-05-06 06:41 | 41.72794 | 12.22022 | 5409 ft | 193 kts | 232° |
| 2026-05-06 06:42 | 41.71900 | 12.20608 | 6029 ft | 204 kts | 230° |
| 2026-05-06 06:42 | 41.70924 | 12.19203 | 6825 ft | 204 kts | 229° |
| 2026-05-06 06:42 | 41.69949 | 12.17839 | 7712 ft | 203 kts | 228° |
| 2026-05-06 06:42 | 41.69360 | 12.16163 | 8441 ft | 207 kts | 264° |
| 2026-05-06 06:43 | 41.69641 | 12.14261 | 9329 ft | 209 kts | 284° |
| 2026-05-06 06:43 | 41.70045 | 12.12395 | 10187 ft | 209 kts | 280° |
| 2026-05-06 06:43 | 41.70395 | 12.10499 | 10937 ft | 212 kts | 280° |
| 2026-05-06 06:43 | 41.70763 | 12.08568 | 11662 ft | 216 kts | 281° |
| 2026-05-06 06:44 | 41.71150 | 12.06626 | 12385 ft | 220 kts | 281° |
| 2026-05-06 06:44 | 41.71559 | 12.04635 | 13143 ft | 224 kts | 281° |
| 2026-05-06 06:44 | 41.71981 | 12.02611 | 13910 ft | 226 kts | 281° |
| 2026-05-06 06:44 | 41.72407 | 12.00581 | 14601 ft | 228 kts | 281° |
| 2026-05-06 06:45 | 41.72836 | 11.98541 | 15294 ft | 231 kts | 281° |
| 2026-05-06 06:45 | 41.73274 | 11.96455 | 15985 ft | 234 kts | 281° |
| 2026-05-06 06:45 | 41.73720 | 11.94338 | 16715 ft | 238 kts | 281° |
| 2026-05-06 06:45 | 41.74174 | 11.92180 | 17487 ft | 242 kts | 281° |
| 2026-05-06 06:46 | 41.74633 | 11.90000 | 18315 ft | 244 kts | 281° |
| 2026-05-06 06:46 | 41.75094 | 11.87805 | 19007 ft | 247 kts | 281° |
| 2026-05-06 06:46 | 41.75563 | 11.85572 | 19705 ft | 249 kts | 281° |
| 2026-05-06 06:46 | 41.76034 | 11.83327 | 20398 ft | 251 kts | 281° |
| 2026-05-06 06:47 | 41.76463 | 11.81279 | 21012 ft | 254 kts | 281° |
| 2026-05-06 06:47 | 41.76730 | 11.79902 | 21428 ft | 254 kts | 278° |
| 2026-05-06 06:47 | 41.77013 | 11.77538 | 21959 ft | 263 kts | 273° |
| 2026-05-06 06:47 | 41.77219 | 11.75035 | 22281 ft | 277 kts | 272° |
| 2026-05-06 06:48 | 41.77426 | 11.72397 | 22589 ft | 292 kts | 273° |
| 2026-05-06 06:48 | 41.77645 | 11.69654 | 22914 ft | 306 kts | 273° |
| 2026-05-06 06:48 | 41.77880 | 11.66747 | 23268 ft | 321 kts | 273° |
| 2026-05-06 06:48 | 41.78128 | 11.63704 | 23585 ft | 336 kts | 273° |
| 2026-05-06 06:49 | 41.78387 | 11.60515 | 23881 ft | 350 kts | 273° |
| 2026-05-06 06:49 | 41.78654 | 11.57239 | 24164 ft | 364 kts | 273° |
| 2026-05-06 06:49 | 41.78930 | 11.53799 | 24505 ft | 378 kts | 273° |